createdAt,value
2018-11-11T00:00:57.190Z,19.20
2018-11-11T00:03:25.904Z,19.00
2018-11-11T00:05:54.512Z,21.43
2018-11-11T00:08:23.405Z,21.03
2018-11-11T00:10:52.528Z,22.50
2018-11-11T00:13:21.887Z,22.13
2018-11-11T00:15:50.776Z,22.60
2018-11-11T00:18:19.655Z,23.97
2018-11-11T00:20:48.544Z,24.33
2018-11-11T00:23:21.282Z,24.20
2018-11-11T00:25:50.362Z,24.10
2018-11-11T00:28:19.533Z,24.07
2018-11-11T00:30:48.303Z,25.80
2018-11-11T00:33:18.392Z,25.02
2018-11-11T00:35:47.142Z,25.43
2018-11-11T00:38:16.291Z,24.50
2018-11-11T00:40:45.951Z,24.10
2018-11-11T00:43:17.113Z,23.20
2018-11-11T00:45:46.277Z,22.73
2018-11-11T00:48:15.147Z,24.00
2018-11-11T00:50:44.197Z,23.00
2018-11-11T00:53:13.198Z,23.17
2018-11-11T00:55:42.168Z,21.43
2018-11-11T00:58:10.752Z,21.07
2018-11-11T01:00:39.528Z,22.47
2018-11-11T01:03:08.467Z,21.50
2018-11-11T01:05:37.017Z,22.43
2018-11-11T01:08:05.730Z,23.33
2018-11-11T01:10:34.638Z,19.47
2018-11-11T01:13:03.416Z,21.97
2018-11-11T01:15:33.410Z,19.80
2018-11-11T01:18:02.273Z,21.10
2018-11-11T01:20:31.270Z,20.53
2018-11-11T01:23:00.023Z,18.97
2018-11-11T01:25:28.795Z,19.60
2018-11-11T01:27:57.726Z,18.30
2018-11-11T01:30:26.408Z,19.00
2018-11-11T01:32:55.162Z,20.30
2018-11-11T01:35:23.521Z,18.47
2018-11-11T01:37:52.159Z,16.70
2018-11-11T01:40:20.705Z,16.90
2018-11-11T01:42:49.147Z,17.53
2018-11-11T01:45:18.926Z,17.60
2018-11-11T01:47:48.511Z,19.57
2018-11-11T01:50:17.193Z,19.67
2018-11-11T01:52:45.895Z,20.00
2018-11-11T01:55:14.868Z,19.63
2018-11-11T01:57:43.426Z,19.80
2018-11-11T02:00:14.884Z,19.73
2018-11-11T02:02:44.029Z,19.80
2018-11-11T02:05:13.281Z,18.67
2018-11-11T02:07:42.856Z,20.07
2018-11-11T02:10:11.848Z,18.70
2018-11-11T02:12:42.050Z,19.47
2018-11-11T02:15:12.037Z,17.40
2018-11-11T02:17:40.864Z,17.37
2018-11-11T02:20:11.877Z,18.55
2018-11-11T02:22:40.967Z,18.87
2018-11-11T02:25:10.076Z,20.80
2018-11-11T02:27:39.091Z,22.00
2018-11-11T02:30:10.118Z,19.02
2018-11-11T02:32:38.972Z,20.10
2018-11-11T02:35:08.688Z,19.63
2018-11-11T02:37:37.485Z,21.67
2018-11-11T02:40:08.892Z,21.60
2018-11-11T02:42:38.081Z,21.27
2018-11-11T02:45:08.221Z,24.07
2018-11-11T02:47:37.340Z,22.47
2018-11-11T02:50:09.597Z,21.02
2018-11-11T02:52:38.110Z,23.00
2018-11-11T02:55:07.311Z,23.13
2018-11-11T02:57:35.955Z,23.70
2018-11-11T03:00:05.567Z,22.80
2018-11-11T03:02:34.239Z,21.33
2018-11-11T03:05:03.180Z,23.03
2018-11-11T03:07:31.969Z,22.57
2018-11-11T03:10:00.531Z,20.87
2018-11-11T03:12:29.378Z,20.88
2018-11-11T03:14:58.063Z,20.87
2018-11-11T03:17:26.847Z,21.00
2018-11-11T03:19:55.359Z,22.20
2018-11-11T03:22:24.345Z,21.47
2018-11-11T03:24:52.967Z,22.33
2018-11-11T03:27:21.796Z,21.10
2018-11-11T03:29:50.437Z,20.93
2018-11-11T03:32:19.021Z,21.13
2018-11-11T03:34:47.556Z,21.02
2018-11-11T03:37:16.002Z,21.67
2018-11-11T03:39:44.562Z,21.43
2018-11-11T03:42:13.057Z,21.27
2018-11-11T03:44:41.616Z,21.62
2018-11-11T03:47:10.154Z,22.23
2018-11-11T03:49:38.742Z,21.80
2018-11-11T03:52:07.560Z,22.13
2018-11-11T03:54:36.563Z,22.03
2018-11-11T03:57:05.273Z,21.73
2018-11-11T03:59:33.957Z,21.20
2018-11-11T04:02:02.544Z,24.07
2018-11-11T04:04:31.202Z,22.30
2018-11-11T04:06:59.978Z,21.90
2018-11-11T04:09:28.484Z,20.87
2018-11-11T04:11:57.186Z,22.80
2018-11-11T04:14:25.892Z,21.13
2018-11-11T04:16:54.925Z,22.07
2018-11-11T04:19:23.754Z,20.83
2018-11-11T04:21:52.938Z,21.90
2018-11-11T04:24:21.648Z,22.17
2018-11-11T04:26:50.129Z,23.47
2018-11-11T04:29:18.820Z,24.10
2018-11-11T04:31:47.638Z,22.10
2018-11-11T04:34:16.421Z,23.37
2018-11-11T04:36:44.971Z,23.30
2018-11-11T04:39:13.626Z,21.95
2018-11-11T04:41:42.239Z,22.60
2018-11-11T04:44:10.823Z,22.30
2018-11-11T04:46:39.478Z,21.70
2018-11-11T04:49:08.296Z,22.10
2018-11-11T04:51:36.818Z,21.93
2018-11-11T04:54:06.046Z,20.97
2018-11-11T04:56:34.486Z,21.67
2018-11-11T04:59:03.033Z,21.47
2018-11-11T05:01:32.063Z,19.57
2018-11-11T05:04:00.500Z,19.27
2018-11-11T05:06:29.020Z,20.80
2018-11-11T05:08:57.623Z,25.27
2018-11-11T05:11:26.184Z,25.25
2018-11-11T05:13:54.897Z,20.27
2018-11-11T05:16:24.026Z,20.30
2018-11-11T05:18:52.659Z,19.30
2018-11-11T05:21:21.333Z,21.43
2018-11-11T05:23:49.923Z,21.80
2018-11-11T05:26:18.623Z,21.00
2018-11-11T05:28:47.301Z,20.57
2018-11-11T05:31:15.901Z,19.67
2018-11-11T05:33:44.593Z,19.13
2018-11-11T05:36:13.410Z,19.37
2018-11-11T05:38:42.206Z,20.43
2018-11-11T05:41:10.920Z,20.30
2018-11-11T05:43:39.642Z,18.80
2018-11-11T05:46:08.656Z,19.33
2018-11-11T05:48:37.853Z,19.57
2018-11-11T05:51:06.236Z,19.03
2018-11-11T05:53:34.740Z,18.73
2018-11-11T05:56:03.640Z,15.77
2018-11-11T05:58:32.424Z,17.93
2018-11-11T06:01:01.116Z,15.83
2018-11-11T06:03:29.715Z,15.60
2018-11-11T06:05:58.309Z,17.67
2018-11-11T06:08:26.967Z,14.70
2018-11-11T06:10:55.822Z,13.93
2018-11-11T06:13:25.061Z,16.23
2018-11-11T06:15:54.270Z,12.33
2018-11-11T06:18:23.576Z,13.20
2018-11-11T06:20:52.816Z,10.57
2018-11-11T06:23:21.608Z,12.20
2018-11-11T06:25:50.644Z,12.37
2018-11-11T06:28:19.426Z,12.70
2018-11-11T06:30:48.516Z,14.40
2018-11-11T06:33:17.166Z,13.87
2018-11-11T06:35:46.104Z,14.30
2018-11-11T06:38:14.678Z,14.23
2018-11-11T06:40:43.591Z,13.53
2018-11-11T06:43:12.233Z,12.83
2018-11-11T06:45:41.067Z,12.23
2018-11-11T06:48:10.130Z,12.95
2018-11-11T06:50:39.393Z,12.80
2018-11-11T06:53:08.335Z,12.90
2018-11-11T06:55:37.389Z,13.67
2018-11-11T06:58:07.735Z,14.70
2018-11-11T07:00:38.259Z,12.77
2018-11-11T07:03:18.440Z,13.20
2018-11-11T07:05:48.909Z,14.60
2018-11-11T07:08:17.616Z,16.73
2018-11-11T07:10:46.571Z,16.57
2018-11-11T07:13:15.685Z,17.37
2018-11-11T07:15:45.198Z,18.23
2018-11-11T07:18:14.467Z,18.47
2018-11-11T07:20:43.620Z,20.70
2018-11-11T07:23:14.785Z,18.70
2018-11-11T07:25:45.574Z,17.73
2018-11-11T07:28:15.910Z,19.27
2018-11-11T07:30:48.421Z,18.53
2018-11-11T07:33:18.420Z,20.03
2018-11-11T07:35:47.510Z,19.37
2018-11-11T07:38:18.274Z,20.47
2018-11-11T07:40:47.796Z,21.30
2018-11-11T07:43:17.425Z,21.90
2018-11-11T07:45:46.366Z,21.03
2018-11-11T07:48:18.597Z,20.90
2018-11-11T07:50:48.511Z,20.70
2018-11-11T07:53:19.589Z,22.33
2018-11-11T07:55:51.385Z,22.00
2018-11-11T07:58:20.829Z,22.63
2018-11-11T08:00:50.970Z,23.40
2018-11-11T08:03:20.415Z,23.50
2018-11-11T08:05:54.630Z,22.80
2018-11-11T08:08:25.220Z,21.50
2018-11-11T08:11:05.600Z,21.10
2018-11-11T08:13:36.083Z,22.53
2018-11-11T08:16:06.052Z,21.50
2018-11-11T08:18:36.986Z,20.17
2018-11-11T08:21:06.973Z,17.75
2018-11-11T08:23:36.293Z,16.77
2018-11-11T08:26:06.338Z,16.33
2018-11-11T08:28:35.598Z,16.97
2018-11-11T08:31:04.550Z,16.63
2018-11-11T08:33:36.530Z,16.53
2018-11-11T08:36:06.638Z,16.10
2018-11-11T08:38:35.800Z,16.20
2018-11-11T08:41:09.187Z,17.50
2018-11-11T08:43:38.658Z,16.20
2018-11-11T08:46:07.901Z,16.00
2018-11-11T08:48:42.090Z,15.77
2018-11-11T08:51:12.899Z,16.00
2018-11-11T08:53:42.111Z,16.07
2018-11-11T08:56:11.951Z,15.13
2018-11-11T08:58:40.846Z,16.30
2018-11-11T09:01:09.858Z,15.37
2018-11-11T09:03:39.407Z,14.23
2018-11-11T09:06:08.157Z,14.20
2018-11-11T09:08:38.349Z,14.20
2018-11-11T09:11:08.198Z,14.60
2018-11-11T09:13:37.379Z,13.40
2018-11-11T09:16:06.290Z,13.73
2018-11-11T09:18:35.441Z,14.03
2018-11-11T09:21:04.793Z,12.67
2018-11-11T09:23:33.973Z,13.70
2018-11-11T09:26:02.931Z,11.47
2018-11-11T09:28:31.851Z,11.17
2018-11-11T09:31:00.837Z,10.85
2018-11-11T09:33:29.600Z,10.93
2018-11-11T09:35:58.206Z,10.90
2018-11-11T09:38:27.301Z,10.83
2018-11-11T09:40:56.520Z,10.90
2018-11-11T09:43:43.311Z,9.40
2018-11-11T09:46:12.397Z,11.10
2018-11-11T09:48:42.782Z,9.10
2018-11-11T09:51:12.040Z,8.97
2018-11-11T09:53:41.601Z,9.07
2018-11-11T09:56:14.959Z,8.87
2018-11-11T09:58:52.194Z,8.03
2018-11-11T10:01:25.014Z,8.27
2018-11-11T10:04:58.483Z,7.10
2018-11-11T10:07:36.079Z,7.40
2018-11-11T10:10:21.189Z,7.13
2018-11-11T10:12:55.868Z,6.60
2018-11-11T10:15:30.398Z,6.93
2018-11-11T10:18:04.913Z,6.80
2018-11-11T10:20:38.795Z,6.00
2018-11-11T10:23:27.610Z,4.50
2018-11-11T10:26:08.288Z,3.95
2018-11-11T10:28:43.389Z,3.60
2018-11-11T10:31:22.622Z,4.10
2018-11-11T10:33:56.886Z,3.43
2018-11-11T10:36:43.672Z,3.87
2018-11-11T10:40:17.997Z,3.30
2018-11-11T10:42:57.544Z,3.83
2018-11-11T10:47:36.353Z,3.50
2018-11-11T10:50:08.083Z,4.00
2018-11-11T10:52:37.283Z,3.90
2018-11-11T10:55:06.497Z,4.03
2018-11-11T10:57:35.558Z,4.50
2018-11-11T11:00:11.451Z,5.23
2018-11-11T11:02:45.690Z,4.73
2018-11-11T11:05:15.140Z,4.60
2018-11-11T11:07:45.567Z,5.60
2018-11-11T11:10:14.668Z,5.33
2018-11-11T11:12:46.404Z,6.03
2018-11-11T11:15:16.158Z,5.80
2018-11-11T11:17:47.088Z,6.83
2018-11-11T11:20:16.046Z,5.87
2018-11-11T11:22:45.239Z,6.60
2018-11-11T11:25:15.499Z,6.80
2018-11-11T11:27:49.422Z,7.80
2018-11-11T11:30:23.729Z,7.60
2018-11-11T11:32:57.879Z,7.10
2018-11-11T11:35:34.985Z,8.10
2018-11-11T11:38:16.387Z,8.27
2018-11-11T11:40:58.292Z,7.63
2018-11-11T11:46:15.346Z,6.65
2018-11-11T11:48:45.799Z,6.10
2018-11-11T11:51:18.200Z,8.23
2018-11-11T11:53:47.359Z,7.80
2018-11-11T11:56:22.744Z,7.53
2018-11-11T11:58:58.259Z,7.62
2018-11-11T12:01:28.054Z,6.43
2018-11-11T12:03:58.819Z,5.92
2018-11-11T12:06:30.038Z,6.23
2018-11-11T12:09:00.011Z,7.30
2018-11-11T12:11:29.275Z,5.80
2018-11-11T12:13:59.095Z,6.20
2018-11-11T12:16:30.127Z,5.47
2018-11-11T12:19:00.268Z,6.50
2018-11-11T12:21:39.218Z,4.97
2018-11-11T12:24:17.780Z,6.07
2018-11-11T12:26:47.745Z,4.87
2018-11-11T12:29:18.043Z,4.33
2018-11-11T12:31:50.686Z,4.00
2018-11-11T12:34:21.019Z,4.07
2018-11-11T12:36:52.256Z,3.97
2018-11-11T12:39:25.185Z,4.10
2018-11-11T12:41:54.909Z,3.80
2018-11-11T12:44:24.625Z,4.50
2018-11-11T12:46:58.102Z,3.95
2018-11-11T12:49:27.791Z,3.97
2018-11-11T12:52:15.451Z,4.90
2018-11-11T12:54:56.412Z,3.90
2018-11-11T12:58:53.633Z,3.60
2018-11-11T13:01:25.609Z,3.70
2018-11-11T13:03:59.483Z,3.60
2018-11-11T13:06:33.902Z,4.07
2018-11-11T13:09:27.858Z,4.30
2018-11-11T14:59:40.283Z,3.00
2018-11-11T15:02:18.560Z,4.20
2018-11-11T15:04:59.548Z,3.77
2018-11-11T15:07:40.915Z,3.67
2018-11-11T15:10:16.423Z,3.47
2018-11-11T15:12:47.760Z,3.20
2018-11-11T15:15:23.326Z,3.27
2018-11-11T15:18:01.654Z,3.90
2018-11-11T15:20:33.166Z,2.93
2018-11-11T15:23:05.725Z,2.90
2018-11-11T15:25:37.162Z,3.50
2018-11-11T15:47:25.478Z,4.57
2018-11-11T15:49:55.210Z,3.67
2018-11-11T15:52:24.886Z,3.60
2018-11-11T15:54:54.172Z,3.30
2018-11-11T15:57:23.141Z,4.23
2018-11-11T15:59:52.348Z,3.53
2018-11-11T16:02:21.278Z,3.70
2018-11-11T16:04:51.024Z,3.60
2018-11-11T16:07:19.782Z,3.13
2018-11-11T16:09:48.552Z,3.80
2018-11-11T16:12:18.056Z,4.43
2018-11-11T16:14:46.934Z,4.63
2018-11-11T16:17:15.985Z,4.60
2018-11-11T16:19:44.918Z,5.40
2018-11-11T16:22:13.921Z,5.83
2018-11-11T16:24:42.828Z,6.77
2018-11-11T16:27:11.550Z,7.40
2018-11-11T16:29:42.132Z,11.07
2018-11-11T16:32:10.819Z,12.30
2018-11-11T16:34:40.608Z,10.40
2018-11-11T16:37:09.393Z,9.40
2018-11-11T16:39:38.204Z,8.50
2018-11-11T16:42:07.174Z,9.30
2018-11-11T16:44:36.190Z,10.33
2018-11-11T16:47:04.960Z,10.03
2018-11-11T16:49:33.784Z,10.67
2018-11-11T16:52:02.837Z,9.00
2018-11-11T16:54:31.953Z,8.10
2018-11-11T16:57:01.268Z,12.53
2018-11-11T16:59:29.894Z,14.13
2018-11-11T17:01:58.668Z,10.73
2018-11-11T17:04:27.419Z,9.10
2018-11-11T17:06:56.680Z,12.23
2018-11-11T17:09:25.513Z,14.27
2018-11-11T17:11:54.715Z,11.70
2018-11-11T17:14:23.871Z,15.23
2018-11-11T17:16:52.778Z,11.50
2018-11-11T17:19:21.874Z,12.40
2018-11-11T17:21:50.894Z,19.60
2018-11-11T17:24:19.514Z,15.47
2018-11-11T17:26:48.243Z,16.23
2018-11-11T17:29:17.166Z,19.50
2018-11-11T17:31:46.149Z,18.87
2018-11-11T17:34:15.131Z,16.23
2018-11-11T17:36:44.232Z,13.37
2018-11-11T17:39:13.285Z,18.50
2018-11-11T17:41:41.872Z,21.20
2018-11-11T17:44:10.639Z,18.55
2018-11-11T17:46:39.984Z,17.17
2018-11-11T17:49:09.298Z,18.17
2018-11-11T17:51:38.536Z,19.07
2018-11-11T17:54:07.286Z,15.80
2018-11-11T17:56:36.379Z,15.23
2018-11-11T17:59:05.212Z,14.87
2018-11-11T18:01:33.970Z,11.83
2018-11-11T18:04:02.658Z,10.07
2018-11-11T18:06:31.460Z,10.37
2018-11-11T18:09:00.152Z,10.13
2018-11-11T18:11:29.022Z,8.50
2018-11-11T18:13:57.913Z,12.33
2018-11-11T18:16:26.551Z,11.30
2018-11-11T18:18:55.314Z,9.83
2018-11-11T18:21:24.390Z,12.77
2018-11-11T18:23:53.161Z,10.47
2018-11-11T18:26:22.032Z,11.67
2018-11-11T18:28:50.831Z,7.37
2018-11-11T18:31:19.725Z,9.77
2018-11-11T18:33:48.545Z,11.33
2018-11-11T18:36:17.150Z,9.87
2018-11-11T18:38:46.088Z,11.07
2018-11-11T18:41:14.861Z,9.90
2018-11-11T18:43:43.600Z,11.43
2018-11-11T18:46:12.873Z,10.10
2018-11-11T18:48:41.744Z,8.90
2018-11-11T18:51:10.724Z,9.53
2018-11-11T18:53:39.707Z,10.20
2018-11-11T18:56:08.633Z,8.80
2018-11-11T18:58:37.395Z,9.97
2018-11-11T19:01:06.123Z,9.23
2018-11-11T19:03:34.828Z,9.20
2018-11-11T19:06:03.694Z,9.43
2018-11-11T19:08:32.474Z,8.77
2018-11-11T19:11:01.623Z,9.77
2018-11-11T19:13:30.065Z,8.60
2018-11-11T19:15:59.078Z,9.07
2018-11-11T19:18:27.725Z,9.27
2018-11-11T19:20:56.475Z,8.77
2018-11-11T19:23:25.485Z,9.50
2018-11-11T19:25:54.262Z,9.87
2018-11-11T19:28:23.133Z,11.57
2018-11-11T19:30:51.978Z,11.47
2018-11-11T19:33:20.831Z,12.27
2018-11-11T19:35:49.557Z,10.23
2018-11-11T19:38:18.489Z,18.27
2018-11-11T19:40:47.418Z,21.93
2018-11-11T19:43:16.341Z,18.63
2018-11-11T19:45:45.046Z,11.47
2018-11-11T19:48:13.818Z,24.80
2018-11-11T19:50:42.264Z,15.90
2018-11-11T19:53:10.882Z,14.63
2018-11-11T19:55:39.356Z,14.90
2018-11-11T19:58:08.096Z,11.63
2018-11-11T20:00:36.873Z,11.37
2018-11-11T20:03:06.153Z,12.85
2018-11-11T20:05:34.858Z,11.10
2018-11-11T20:08:03.834Z,10.67
2018-11-11T20:10:32.829Z,11.43
2018-11-11T20:13:02.138Z,11.13
2018-11-11T20:15:32.192Z,11.40
2018-11-11T20:18:00.917Z,10.93
2018-11-11T20:20:32.834Z,10.75
2018-11-11T20:23:01.834Z,9.93
2018-11-11T20:25:30.766Z,10.47
2018-11-11T20:27:59.782Z,10.67
2018-11-11T20:30:30.050Z,11.30
2018-11-11T20:32:59.402Z,10.77
2018-11-11T20:35:29.423Z,10.60
2018-11-11T20:37:58.366Z,10.63
2018-11-11T20:40:28.094Z,11.23
2018-11-11T20:42:57.520Z,11.50
2018-11-11T20:45:33.467Z,12.30
2018-11-11T20:48:02.492Z,10.80
2018-11-11T20:50:32.355Z,9.63
2018-11-11T20:53:02.594Z,12.30
2018-11-11T20:55:31.334Z,11.70
2018-11-11T20:58:00.084Z,8.97
2018-11-11T21:00:31.963Z,9.23
2018-11-11T21:03:00.936Z,9.40
2018-11-11T21:05:29.979Z,9.10
2018-11-11T21:07:59.019Z,10.33
2018-11-11T21:10:28.859Z,9.97
2018-11-11T21:12:58.098Z,9.60
2018-11-11T21:15:29.039Z,10.47
2018-11-11T21:17:57.934Z,9.83
2018-11-11T21:20:28.139Z,9.33
2018-11-11T21:22:57.500Z,8.33
2018-11-11T21:25:26.713Z,7.77
2018-11-11T21:27:55.588Z,9.10
2018-11-11T21:30:26.703Z,8.47
2018-11-11T21:32:55.415Z,9.70
2018-11-11T21:35:24.150Z,7.40
2018-11-11T21:37:52.947Z,8.00
2018-11-11T21:40:23.005Z,8.50
2018-11-11T21:42:53.270Z,8.93
2018-11-11T21:45:23.275Z,8.60
2018-11-11T21:47:52.438Z,8.60
2018-11-11T21:50:22.225Z,9.83
2018-11-11T21:53:02.323Z,9.80
2018-11-11T21:55:31.094Z,9.03
2018-11-11T21:57:59.663Z,9.03
2018-11-11T22:00:28.351Z,9.23
2018-11-11T22:02:57.017Z,9.50
2018-11-11T22:05:25.802Z,8.93
2018-11-11T22:07:54.478Z,8.00
2018-11-11T22:10:23.526Z,7.93
2018-11-11T22:12:52.390Z,8.27
2018-11-11T22:15:21.124Z,8.10
2018-11-11T22:17:49.875Z,7.43
2018-11-11T22:20:18.615Z,7.70
2018-11-11T22:22:47.456Z,6.83
2018-11-11T22:25:16.062Z,7.20
2018-11-11T22:27:44.787Z,6.72
2018-11-11T22:30:13.714Z,6.83
2018-11-11T22:32:42.614Z,6.90
2018-11-11T22:35:12.924Z,7.20
2018-11-11T22:37:41.616Z,7.42
2018-11-11T22:40:12.035Z,8.97
2018-11-11T22:42:40.530Z,9.47
2018-11-11T22:45:11.677Z,9.70
2018-11-11T22:47:40.459Z,8.10
2018-11-11T22:50:11.073Z,8.67
2018-11-11T22:52:40.287Z,9.67
2018-11-11T22:55:10.290Z,9.00
2018-11-11T22:57:39.254Z,8.93
2018-11-11T23:00:16.804Z,9.90
2018-11-11T23:02:45.510Z,10.90
2018-11-11T23:05:15.179Z,10.97
2018-11-11T23:07:44.029Z,11.63
2018-11-11T23:10:12.740Z,10.93
2018-11-11T23:12:41.441Z,11.30
2018-11-11T23:15:11.928Z,10.53
2018-11-11T23:17:40.736Z,11.77
2018-11-11T23:20:11.039Z,12.28
2018-11-11T23:22:40.230Z,11.10
2018-11-11T23:25:10.726Z,12.03
2018-11-11T23:27:39.359Z,12.33
2018-11-11T23:30:12.365Z,11.57
2018-11-11T23:32:40.896Z,11.10
2018-11-11T23:35:10.981Z,12.00
2018-11-11T23:37:39.895Z,12.27
2018-11-11T23:40:10.504Z,11.80
2018-11-11T23:42:39.829Z,12.10
2018-11-11T23:45:08.754Z,12.43
2018-11-11T23:47:37.929Z,11.63
2018-11-11T23:50:13.504Z,11.53
2018-11-11T23:52:42.960Z,13.50
2018-11-11T23:55:13.604Z,12.73
2018-11-11T23:57:42.359Z,13.93
